Time;durP1;ratioP1;P1;durP2;ratioP2;P2;SDS_P1;SDS_P2;PMS_P1;PMS_P2;Temp;Humidity;BMP_temperature;BMP_pressure;BME280_temperature;BME280_humidity;BME280_pressure;Samples;Min_cycle;Max_cycle;Signal;HPM_P1;HPM_P2
2023/06/11 00:00:56;;;;;;;6.63;4.15;;;;;;;;;;5129374;27;20136;-59
2023/06/11 00:03:22;;;;;;;5.63;4.07;;;;;;;;;;5128094;27;20526;-59
2023/06/11 00:05:49;;;;;;;5.85;3.80;;;;;;;;;;5138501;27;20136;-58
2023/06/11 00:08:16;;;;;;;5.18;3.45;;;;;;;;;;5129763;27;20051;-57
2023/06/11 00:10:42;;;;;;;4.70;3.58;;;;;;;;;;5135381;27;20059;-58
2023/06/11 00:13:08;;;;;;;5.28;3.95;;;;;;;;;;5133488;27;20155;-59
2023/06/11 00:15:35;;;;;;;4.82;3.75;;;;;;;;;;5137088;27;20055;-57
2023/06/11 00:18:02;;;;;;;4.45;3.90;;;;;;;;;;5141210;27;20051;-56
2023/06/11 00:20:29;;;;;;;4.30;3.85;;;;;;;;;;5136290;27;20055;-58
2023/06/11 00:22:55;;;;;;;4.60;3.60;;;;;;;;;;5143996;27;20058;-58
2023/06/11 00:25:22;;;;;;;5.45;3.80;;;;;;;;;;5143991;27;20047;-59
2023/06/11 00:27:48;;;;;;;4.57;4.00;;;;;;;;;;5144280;27;20055;-57
2023/06/11 00:30:16;;;;;;;7.85;4.30;;;;;;;;;;5136084;27;20139;-58
2023/06/11 00:32:42;;;;;;;4.80;3.88;;;;;;;;;;5125351;27;20515;-58
2023/06/11 00:35:09;;;;;;;6.78;4.32;;;;;;;;;;5141178;27;20044;-57
2023/06/11 00:37:36;;;;;;;5.10;4.05;;;;;;;;;;5136310;27;20047;-56
2023/06/11 00:40:03;;;;;;;5.82;3.92;;;;;;;;;;5123280;27;20078;-58
2023/06/11 00:42:30;;;;;;;4.93;4.00;;;;;;;;;;5131718;27;20065;-59
2023/06/11 00:44:56;;;;;;;6.95;3.83;;;;;;;;;;5140081;27;20101;-58
2023/06/11 00:47:23;;;;;;;6.07;3.75;;;;;;;;;;5131636;27;20546;-59
2023/06/11 00:49:49;;;;;;;7.00;4.03;;;;;;;;;;5134407;27;20147;-59
2023/06/11 00:52:16;;;;;;;4.25;3.85;;;;;;;;;;5138950;27;20145;-59
2023/06/11 00:54:42;;;;;;;5.25;4.22;;;;;;;;;;5126121;27;20056;-59
2023/06/11 00:57:08;;;;;;;4.80;4.03;;;;;;;;;;5122094;27;20061;-59
2023/06/11 00:59:35;;;;;;;4.90;3.90;;;;;;;;;;5134515;27;20593;-59
2023/06/11 01:02:09;;;;;;;6.78;4.20;;;;;;;;;;5135941;27;20206;-56
2023/06/11 01:04:36;;;;;;;6.20;4.38;;;;;;;;;;5124534;27;20061;-58
2023/06/11 01:07:06;;;;;;;5.65;3.95;;;;;;;;;;5130324;27;20489;-58
2023/06/11 01:09:33;;;;;;;11.20;4.70;;;;;;;;;;5140064;27;20496;-58
2023/06/11 01:12:02;;;;;;;5.60;4.43;;;;;;;;;;5143188;27;20097;-59
2023/06/11 01:14:28;;;;;;;7.30;4.80;;;;;;;;;;5138087;27;20135;-57
2023/06/11 01:17:06;;;;;;;5.60;4.45;;;;;;;;;;5137610;27;20051;-59
2023/06/11 01:19:52;;;;;;;9.55;4.70;;;;;;;;;;5122119;27;20052;-59
2023/06/11 01:22:21;;;;;;;4.82;4.03;;;;;;;;;;5127139;27;20871;-58
2023/06/11 01:25:07;;;;;;;6.55;4.50;;;;;;;;;;5125312;27;20069;-57
2023/06/11 01:27:42;;;;;;;5.80;4.75;;;;;;;;;;5129211;27;20075;-59
2023/06/11 01:30:10;;;;;;;5.70;4.57;;;;;;;;;;5123902;27;20056;-57
2023/06/11 01:32:37;;;;;;;8.45;4.80;;;;;;;;;;5138797;27;20094;-59
2023/06/11 01:35:04;;;;;;;5.88;4.47;;;;;;;;;;5136147;27;20052;-59
2023/06/11 01:37:32;;;;;;;7.65;4.13;;;;;;;;;;5130437;27;20062;-59
2023/06/11 01:39:59;;;;;;;7.40;4.30;;;;;;;;;;5133107;27;20138;-56
2023/06/11 01:42:25;;;;;;;5.82;4.68;;;;;;;;;;5128719;27;20055;-58
2023/06/11 01:44:52;;;;;;;7.93;4.75;;;;;;;;;;5140592;27;20059;-58
2023/06/11 01:47:18;;;;;;;5.30;4.53;;;;;;;;;;5128232;27;20093;-59
2023/06/11 01:49:44;;;;;;;6.65;4.30;;;;;;;;;;5143843;27;20840;-58
2023/06/11 01:52:11;;;;;;;5.28;4.15;;;;;;;;;;5129469;27;20743;-57
2023/06/11 01:54:37;;;;;;;7.65;5.15;;;;;;;;;;5125120;27;20107;-59
2023/06/11 01:57:04;;;;;;;5.38;4.35;;;;;;;;;;5125413;27;20402;-57
2023/06/11 01:59:31;;;;;;;6.82;4.93;;;;;;;;;;5134343;27;20158;-58
2023/06/11 02:01:57;;;;;;;5.18;4.57;;;;;;;;;;5135360;27;20055;-59
2023/06/11 02:04:23;;;;;;;5.72;4.35;;;;;;;;;;5134039;27;20051;-59
2023/06/11 02:06:50;;;;;;;7.70;5.05;;;;;;;;;;5132201;27;20596;-56
2023/06/11 02:09:16;;;;;;;5.72;4.25;;;;;;;;;;5144007;27;20484;-56
2023/06/11 02:11:43;;;;;;;9.27;4.85;;;;;;;;;;5131946;27;20501;-59
2023/06/11 02:14:09;;;;;;;8.05;4.93;;;;;;;;;;5140171;27;20051;-59
2023/06/11 02:16:36;;;;;;;5.78;5.18;;;;;;;;;;5139067;27;20183;-61
2023/06/11 02:19:02;;;;;;;5.85;5.13;;;;;;;;;;5113861;27;20079;-58
2023/06/11 02:21:28;;;;;;;7.20;5.05;;;;;;;;;;5127578;27;20046;-57
2023/06/11 02:23:55;;;;;;;6.13;5.40;;;;;;;;;;5131704;27;20828;-58
2023/06/11 02:26:21;;;;;;;5.28;4.75;;;;;;;;;;5139874;27;20047;-55
2023/06/11 02:28:48;;;;;;;7.03;5.35;;;;;;;;;;5123726;27;20147;-58
2023/06/11 02:31:14;;;;;;;6.40;5.25;;;;;;;;;;5140100;27;20496;-58
2023/06/11 02:33:40;;;;;;;5.93;5.10;;;;;;;;;;5134330;27;20074;-56
2023/06/11 02:36:07;;;;;;;7.53;5.72;;;;;;;;;;5139145;27;20082;-59
2023/06/11 02:38:33;;;;;;;5.88;5.28;;;;;;;;;;5143470;27;20099;-57
2023/06/11 02:40:59;;;;;;;6.63;5.28;;;;;;;;;;5138346;27;20082;-59
2023/06/11 02:43:26;;;;;;;5.43;4.57;;;;;;;;;;5125462;27;20052;-58
2023/06/11 02:45:52;;;;;;;6.57;5.03;;;;;;;;;;5122751;27;20109;-58
2023/06/11 02:48:19;;;;;;;9.82;5.70;;;;;;;;;;5125213;27;20524;-58
2023/06/11 02:50:45;;;;;;;10.38;5.63;;;;;;;;;;5137104;27;20135;-58
2023/06/11 02:53:12;;;;;;;6.75;5.15;;;;;;;;;;5137428;27;20054;-58
2023/06/11 02:55:38;;;;;;;9.35;5.72;;;;;;;;;;5141310;27;20141;-57
2023/06/11 02:58:04;;;;;;;10.35;6.50;;;;;;;;;;5131442;27;20146;-56
2023/06/11 03:00:31;;;;;;;6.72;5.63;;;;;;;;;;5143340;27;20051;-56
2023/06/11 03:02:57;;;;;;;6.28;5.68;;;;;;;;;;5125100;27;20117;-55
2023/06/11 03:05:23;;;;;;;6.80;5.75;;;;;;;;;;5132872;27;20140;-59
2023/06/11 03:07:50;;;;;;;6.07;5.30;;;;;;;;;;5134737;27;20108;-58
2023/06/11 03:10:16;;;;;;;7.28;5.93;;;;;;;;;;5143679;27;20500;-58
2023/06/11 03:12:43;;;;;;;7.18;6.03;;;;;;;;;;5129436;27;20609;-57
2023/06/11 03:15:09;;;;;;;10.48;6.70;;;;;;;;;;5142821;27;20058;-59
2023/06/11 03:17:36;;;;;;;8.00;6.05;;;;;;;;;;5133445;27;20059;-59
2023/06/11 03:20:03;;;;;;;7.53;5.82;;;;;;;;;;5122227;27;20590;-59
2023/06/11 03:22:29;;;;;;;8.50;6.97;;;;;;;;;;5131424;27;20508;-58
2023/06/11 03:24:55;;;;;;;7.90;6.22;;;;;;;;;;5125702;27;20150;-58
2023/06/11 03:27:22;;;;;;;12.95;6.72;;;;;;;;;;5126085;27;20564;-57
2023/06/11 03:29:48;;;;;;;7.57;6.88;;;;;;;;;;5134257;27;20051;-58
2023/06/11 03:32:15;;;;;;;10.43;6.28;;;;;;;;;;5139398;27;20507;-55
2023/06/11 03:34:42;;;;;;;9.00;7.03;;;;;;;;;;5141918;27;20944;-57
2023/06/11 03:37:09;;;;;;;9.35;6.60;;;;;;;;;;5138858;27;20051;-59
2023/06/11 03:39:35;;;;;;;9.90;6.63;;;;;;;;;;5144546;27;20211;-58
2023/06/11 03:42:01;;;;;;;9.95;6.90;;;;;;;;;;5144117;27;20561;-59
2023/06/11 03:44:28;;;;;;;7.95;6.68;;;;;;;;;;5130136;27;20146;-58
2023/06/11 03:46:54;;;;;;;7.63;6.65;;;;;;;;;;5139626;27;20096;-58
2023/06/11 03:49:21;;;;;;;11.38;7.25;;;;;;;;;;5144312;27;20062;-58
2023/06/11 03:51:47;;;;;;;7.15;6.45;;;;;;;;;;5127390;27;21064;-59
2023/06/11 03:54:13;;;;;;;7.60;6.65;;;;;;;;;;5126773;27;20472;-57
2023/06/11 03:56:40;;;;;;;8.18;7.10;;;;;;;;;;5137561;27;20150;-57
2023/06/11 03:59:06;;;;;;;7.93;6.93;;;;;;;;;;5129656;27;20047;-56
2023/06/11 04:01:33;;;;;;;7.13;6.35;;;;;;;;;;5130025;27;20556;-58
2023/06/11 04:03:59;;;;;;;6.93;6.18;;;;;;;;;;5132254;27;20048;-59
2023/06/11 04:06:27;;;;;;;12.43;6.57;;;;;;;;;;5133178;27;20055;-58
2023/06/11 04:08:53;;;;;;;7.85;6.80;;;;;;;;;;5145466;27;20051;-58
2023/06/11 04:11:20;;;;;;;9.60;7.00;;;;;;;;;;5144607;27;20052;-58
2023/06/11 04:13:49;;;;;;;11.05;6.68;;;;;;;;;;5140169;27;20066;-58
2023/06/11 04:16:17;;;;;;;9.32;7.10;;;;;;;;;;5142654;27;20054;-58
2023/06/11 04:18:43;;;;;;;7.07;6.38;;;;;;;;;;5145247;27;20063;-59
2023/06/11 04:21:10;;;;;;;12.40;6.97;;;;;;;;;;5145683;27;20047;-58
2023/06/11 04:23:36;;;;;;;11.07;6.57;;;;;;;;;;5139880;27;20085;-58
2023/06/11 04:26:02;;;;;;;7.07;6.38;;;;;;;;;;5133892;27;20748;-58
2023/06/11 04:28:29;;;;;;;8.93;6.57;;;;;;;;;;5140853;27;20119;-58
2023/06/11 04:30:57;;;;;;;7.47;6.68;;;;;;;;;;5143001;27;20112;-58
2023/06/11 04:33:32;;;;;;;6.93;6.30;;;;;;;;;;5141520;27;20055;-58
2023/06/11 04:36:00;;;;;;;16.42;6.72;;;;;;;;;;5141299;27;20055;-58
2023/06/11 04:38:30;;;;;;;7.53;6.72;;;;;;;;;;5141673;27;20051;-59
2023/06/11 04:40:57;;;;;;;7.68;6.75;;;;;;;;;;5131619;27;20047;-59
2023/06/11 04:43:23;;;;;;;8.18;6.15;;;;;;;;;;5138579;27;20509;-58
2023/06/11 04:45:55;;;;;;;9.55;6.50;;;;;;;;;;5137476;27;20047;-58
2023/06/11 04:48:27;;;;;;;6.80;6.20;;;;;;;;;;5142108;27;20054;-58
2023/06/11 04:50:54;;;;;;;9.25;6.63;;;;;;;;;;5126647;27;20059;-55
2023/06/11 04:53:24;;;;;;;9.02;6.70;;;;;;;;;;5133410;27;20043;-57
2023/06/11 04:55:51;;;;;;;9.48;6.05;;;;;;;;;;5140269;27;20175;-54
2023/06/11 04:58:20;;;;;;;6.75;6.05;;;;;;;;;;5142687;27;20258;-57
2023/06/11 05:00:50;;;;;;;10.70;6.40;;;;;;;;;;5133474;27;20051;-56
2023/06/11 05:03:17;;;;;;;8.52;6.28;;;;;;;;;;5144136;27;20825;-58
2023/06/11 05:05:49;;;;;;;7.22;6.53;;;;;;;;;;5137659;27;20052;-55
2023/06/11 05:08:17;;;;;;;8.77;6.53;;;;;;;;;;5135447;27;20156;-55
2023/06/11 05:10:44;;;;;;;9.07;6.90;;;;;;;;;;5130589;27;20552;-56
2023/06/11 05:13:11;;;;;;;10.40;7.25;;;;;;;;;;5133227;27;20162;-58
2023/06/11 05:15:37;;;;;;;7.40;6.60;;;;;;;;;;5130997;27;20485;-53
2023/06/11 05:18:04;;;;;;;8.35;6.60;;;;;;;;;;5135449;27;20055;-56
2023/06/11 05:20:30;;;;;;;7.03;6.32;;;;;;;;;;5145447;27;20051;-57
2023/06/11 05:23:02;;;;;;;7.90;6.47;;;;;;;;;;5135260;27;20134;-58
2023/06/11 05:25:29;;;;;;;7.07;6.35;;;;;;;;;;5136324;27;20055;-58
2023/06/11 05:28:00;;;;;;;7.45;6.65;;;;;;;;;;5140171;27;20062;-58
2023/06/11 05:30:29;;;;;;;7.38;5.97;;;;;;;;;;5129109;27;20055;-58
2023/06/11 05:32:56;;;;;;;8.75;6.13;;;;;;;;;;5125815;27;20551;-56
2023/06/11 05:35:22;;;;;;;6.90;6.20;;;;;;;;;;5124541;27;20055;-54
2023/06/11 05:37:49;;;;;;;7.25;6.47;;;;;;;;;;5127839;27;20133;-58
2023/06/11 05:40:15;;;;;;;8.15;6.38;;;;;;;;;;5136961;27;20105;-58
2023/06/11 05:42:41;;;;;;;6.93;6.22;;;;;;;;;;5143861;27;20130;-58
2023/06/11 05:45:08;;;;;;;12.35;5.93;;;;;;;;;;5121426;27;20079;-57
2023/06/11 05:47:35;;;;;;;6.75;6.07;;;;;;;;;;5132373;27;20082;-58
2023/06/11 05:50:02;;;;;;;7.68;6.88;;;;;;;;;;5136246;27;20177;-56
2023/06/11 05:52:28;;;;;;;7.78;6.57;;;;;;;;;;5123820;27;20047;-54
2023/06/11 05:54:54;;;;;;;6.90;6.20;;;;;;;;;;5139921;27;20052;-58
2023/06/11 05:57:22;;;;;;;11.57;6.65;;;;;;;;;;5127362;27;20558;-58
2023/06/11 05:59:48;;;;;;;6.88;6.13;;;;;;;;;;5139460;27;20150;-57
2023/06/11 06:02:15;;;;;;;10.32;5.95;;;;;;;;;;5143393;27;20100;-59
2023/06/11 06:04:41;;;;;;;9.98;5.78;;;;;;;;;;5136377;27;20051;-58
2023/06/11 06:07:08;;;;;;;8.10;6.65;;;;;;;;;;5128051;27;20036;-58
2023/06/11 06:09:34;;;;;;;7.10;5.78;;;;;;;;;;5140800;27;20063;-58
2023/06/11 06:12:00;;;;;;;7.70;6.40;;;;;;;;;;5143982;27;20151;-59
2023/06/11 06:14:27;;;;;;;7.47;5.85;;;;;;;;;;5135179;27;20139;-58
2023/06/11 06:16:53;;;;;;;7.55;6.03;;;;;;;;;;5137206;27;20051;-58
2023/06/11 06:19:20;;;;;;;7.03;6.13;;;;;;;;;;5124463;27;20059;-61
2023/06/11 06:21:46;;;;;;;6.82;6.10;;;;;;;;;;5122466;27;20120;-59
2023/06/11 06:24:12;;;;;;;8.55;6.50;;;;;;;;;;5127334;27;20083;-58
2023/06/11 06:26:40;;;;;;;7.45;6.28;;;;;;;;;;5137918;27;20166;-59
2023/06/11 06:29:08;;;;;;;6.78;6.05;;;;;;;;;;5126927;27;20094;-58
2023/06/11 06:31:36;;;;;;;9.85;6.07;;;;;;;;;;5135781;27;20052;-59
2023/06/11 06:34:03;;;;;;;8.88;6.75;;;;;;;;;;5128730;27;20055;-58
2023/06/11 06:36:29;;;;;;;10.73;6.63;;;;;;;;;;5130908;27;20514;-55
2023/06/11 06:38:56;;;;;;;9.48;5.75;;;;;;;;;;5130024;27;20050;-41
2023/06/11 06:41:22;;;;;;;6.93;5.95;;;;;;;;;;5121826;27;20047;-57
2023/06/11 06:43:49;;;;;;;8.65;5.75;;;;;;;;;;5125205;27;20598;-56
2023/06/11 06:46:18;;;;;;;7.82;5.80;;;;;;;;;;5123774;27;20059;-58
2023/06/11 06:48:45;;;;;;;7.97;5.75;;;;;;;;;;5135468;27;20150;-57
2023/06/11 06:51:11;;;;;;;6.35;5.75;;;;;;;;;;5142774;27;20138;-58
2023/06/11 06:53:38;;;;;;;7.05;6.32;;;;;;;;;;5131532;27;20563;-56
2023/06/11 06:56:05;;;;;;;6.70;6.00;;;;;;;;;;5122937;27;20051;-58
2023/06/11 06:58:32;;;;;;;7.35;6.65;;;;;;;;;;5132941;27;20078;-57
2023/06/11 07:00:58;;;;;;;7.82;6.57;;;;;;;;;;5122947;27;20087;-58
2023/06/11 07:03:25;;;;;;;6.15;5.55;;;;;;;;;;5135810;27;20066;-59
2023/06/11 07:05:51;;;;;;;7.65;5.93;;;;;;;;;;5143181;27;20229;-58
2023/06/11 07:08:18;;;;;;;8.55;5.95;;;;;;;;;;5136942;27;20082;-58
2023/06/11 07:10:48;;;;;;;6.85;6.00;;;;;;;;;;5144692;27;20544;-57
2023/06/11 07:13:15;;;;;;;6.80;6.20;;;;;;;;;;5137781;27;20058;-58
2023/06/11 07:15:41;;;;;;;6.38;5.78;;;;;;;;;;5131588;27;20051;-58
2023/06/11 07:18:08;;;;;;;6.85;6.15;;;;;;;;;;5140512;27;20075;-58
2023/06/11 07:20:35;;;;;;;8.25;5.70;;;;;;;;;;5126467;27;20051;-57
2023/06/11 07:23:01;;;;;;;7.20;6.03;;;;;;;;;;5130192;27;20058;-59
2023/06/11 07:25:30;;;;;;;9.15;5.88;;;;;;;;;;5133153;27;20047;-59
2023/06/11 07:27:59;;;;;;;7.78;5.82;;;;;;;;;;5128302;27;20051;-57
2023/06/11 07:30:26;;;;;;;15.02;6.50;;;;;;;;;;5141407;27;20397;-58
2023/06/11 07:32:53;;;;;;;6.78;5.53;;;;;;;;;;5137474;27;20080;-58
2023/06/11 07:35:22;;;;;;;9.32;6.38;;;;;;;;;;5126850;27;20124;-57
2023/06/11 07:37:49;;;;;;;6.22;5.63;;;;;;;;;;5127709;27;20180;-59
2023/06/11 07:40:15;;;;;;;5.68;5.15;;;;;;;;;;5147141;27;20142;-59
2023/06/11 07:42:42;;;;;;;6.80;5.70;;;;;;;;;;5139540;27;20574;-59
2023/06/11 07:45:09;;;;;;;8.10;5.35;;;;;;;;;;5136804;27;20565;-59
2023/06/11 07:47:36;;;;;;;5.78;5.22;;;;;;;;;;5132304;27;20130;-59
2023/06/11 07:50:03;;;;;;;5.32;4.80;;;;;;;;;;5143706;27;20051;-55
2023/06/11 07:52:29;;;;;;;5.53;5.03;;;;;;;;;;5139723;27;20052;-53
2023/06/11 07:54:56;;;;;;;5.95;5.07;;;;;;;;;;5140269;27;20104;-58
2023/06/11 07:57:22;;;;;;;5.90;5.22;;;;;;;;;;5136957;27;20055;-58
2023/06/11 07:59:49;;;;;;;5.75;5.18;;;;;;;;;;5144321;27;20616;-57
2023/06/11 08:02:15;;;;;;;5.90;5.25;;;;;;;;;;5144849;27;20051;-58
2023/06/11 08:04:41;;;;;;;7.63;5.32;;;;;;;;;;5125357;27;20138;-58
2023/06/11 08:07:08;;;;;;;6.55;5.35;;;;;;;;;;5126122;27;20047;-58
2023/06/11 08:09:37;;;;;;;6.05;5.55;;;;;;;;;;5140804;27;20138;-56
2023/06/11 08:12:04;;;;;;;5.90;5.30;;;;;;;;;;5145964;27;20055;-57
2023/06/11 08:14:31;;;;;;;6.55;5.20;;;;;;;;;;5142195;27;20047;-59
2023/06/11 08:16:58;;;;;;;5.88;5.15;;;;;;;;;;5124232;27;20146;-57
2023/06/11 08:19:25;;;;;;;5.97;5.30;;;;;;;;;;5127262;27;20113;-58
2023/06/11 08:21:52;;;;;;;7.15;6.07;;;;;;;;;;5138408;27;20055;-58
2023/06/11 08:24:18;;;;;;;5.53;4.95;;;;;;;;;;5129735;27;20117;-57
2023/06/11 08:26:45;;;;;;;7.88;5.55;;;;;;;;;;5125059;27;20055;-58
2023/06/11 08:29:11;;;;;;;7.32;5.78;;;;;;;;;;5111867;27;20127;-58
2023/06/11 08:31:37;;;;;;;8.32;5.50;;;;;;;;;;5128682;27;20100;-59
2023/06/11 08:34:04;;;;;;;6.18;5.63;;;;;;;;;;5135318;27;20590;-59
2023/06/11 08:36:31;;;;;;;6.25;5.65;;;;;;;;;;5145200;27;20081;-55
2023/06/11 08:38:57;;;;;;;6.30;5.70;;;;;;;;;;5134209;27;20353;-58
2023/06/11 08:41:23;;;;;;;5.88;5.20;;;;;;;;;;5129639;27;20133;-58
2023/06/11 08:43:50;;;;;;;7.28;6.05;;;;;;;;;;5139251;27;20044;-58
2023/06/11 08:46:20;;;;;;;7.43;5.88;;;;;;;;;;5124586;27;20147;-58
2023/06/11 08:48:50;;;;;;;6.80;5.43;;;;;;;;;;5134127;27;20063;-59
2023/06/11 08:51:16;;;;;;;7.00;5.68;;;;;;;;;;5144676;27;20047;-58
2023/06/11 08:53:42;;;;;;;5.70;5.20;;;;;;;;;;5139507;27;20150;-58
2023/06/11 08:56:09;;;;;;;6.53;5.72;;;;;;;;;;5125635;27;20062;-58
2023/06/11 08:58:35;;;;;;;6.30;5.70;;;;;;;;;;5124907;27;20059;-58
2023/06/11 09:01:08;;;;;;;5.75;5.15;;;;;;;;;;5124103;27;20538;-59
2023/06/11 09:03:34;;;;;;;7.85;5.43;;;;;;;;;;5127778;27;20091;-58
2023/06/11 09:06:01;;;;;;;6.20;5.60;;;;;;;;;;5145614;27;20469;-59
2023/06/11 09:08:27;;;;;;;7.07;5.57;;;;;;;;;;5128649;27;20106;-57
2023/06/11 09:10:54;;;;;;;7.15;5.03;;;;;;;;;;5140379;27;20104;-59
2023/06/11 09:13:23;;;;;;;5.95;5.20;;;;;;;;;;5136713;27;20904;-60
2023/06/11 09:15:52;;;;;;;5.60;5.10;;;;;;;;;;5124685;27;20047;-59
2023/06/11 09:18:19;;;;;;;5.30;4.80;;;;;;;;;;5106119;27;20059;-56
2023/06/11 09:20:49;;;;;;;6.97;5.05;;;;;;;;;;5139782;27;20116;-57
2023/06/11 09:23:32;;;;;;;8.50;6.05;;;;;;;;;;5135224;27;20139;-55
2023/06/11 09:25:59;;;;;;;6.63;5.38;;;;;;;;;;5144992;27;20161;-59
2023/06/11 09:28:35;;;;;;;7.43;5.07;;;;;;;;;;5141566;27;20058;-58
2023/06/11 09:31:03;;;;;;;5.25;4.80;;;;;;;;;;5136719;27;20047;-59
2023/06/11 09:33:30;;;;;;;7.05;5.70;;;;;;;;;;5136767;27;20401;-58
2023/06/11 09:35:57;;;;;;;4.78;4.38;;;;;;;;;;5134315;27;20152;-61
2023/06/11 09:38:24;;;;;;;4.88;4.40;;;;;;;;;;5131761;27;20093;-55
2023/06/11 09:40:52;;;;;;;5.65;5.13;;;;;;;;;;5139017;27;20047;-60
2023/06/11 09:43:19;;;;;;;5.90;5.20;;;;;;;;;;5146346;27;20461;-61
2023/06/11 09:45:48;;;;;;;4.55;4.15;;;;;;;;;;5124571;27;20143;-61
2023/06/11 09:48:14;;;;;;;5.85;4.65;;;;;;;;;;5124367;27;20051;-62
2023/06/11 09:50:41;;;;;;;5.97;5.10;;;;;;;;;;5127319;27;20051;-60
2023/06/11 09:53:10;;;;;;;5.25;4.68;;;;;;;;;;5126944;27;20144;-58
2023/06/11 09:55:37;;;;;;;4.65;4.13;;;;;;;;;;5128677;27;20051;-61
2023/06/11 09:58:03;;;;;;;6.57;4.35;;;;;;;;;;5134213;27;20061;-62
2023/06/11 10:00:30;;;;;;;5.03;4.05;;;;;;;;;;5125300;27;20431;-61
2023/06/11 10:02:59;;;;;;;5.70;4.03;;;;;;;;;;5145345;27;20052;-61
2023/06/11 10:05:26;;;;;;;4.55;3.90;;;;;;;;;;5127268;27;20062;-62
2023/06/11 10:08:00;;;;;;;4.18;3.70;;;;;;;;;;5129963;27;20055;-62
2023/06/11 10:10:27;;;;;;;4.47;3.70;;;;;;;;;;5128079;27;20504;-61
2023/06/11 10:12:54;;;;;;;5.20;3.72;;;;;;;;;;5133108;27;20877;-61
2023/06/11 10:15:21;;;;;;;5.03;3.83;;;;;;;;;;5131735;27;20052;-61
2023/06/11 10:17:49;;;;;;;4.80;3.78;;;;;;;;;;5131189;27;20055;-61
2023/06/11 10:20:17;;;;;;;5.68;4.20;;;;;;;;;;5129813;27;20170;-42
2023/06/11 10:22:43;;;;;;;3.97;3.60;;;;;;;;;;5124358;27;20136;-59
2023/06/11 10:25:09;;;;;;;4.95;3.90;;;;;;;;;;5131320;27;20055;-59
2023/06/11 10:27:37;;;;;;;4.30;3.90;;;;;;;;;;5123011;27;20146;-64
2023/06/11 10:30:05;;;;;;;5.95;3.67;;;;;;;;;;5129268;27;20109;-61
2023/06/11 10:32:31;;;;;;;5.45;3.90;;;;;;;;;;5125086;27;20047;-60
2023/06/11 10:35:03;;;;;;;4.68;4.03;;;;;;;;;;5124960;27;20116;-59
2023/06/11 10:37:31;;;;;;;5.00;3.83;;;;;;;;;;5141319;27;20096;-60
2023/06/11 10:39:58;;;;;;;6.60;4.07;;;;;;;;;;5130623;27;20066;-61
2023/06/11 10:42:26;;;;;;;4.68;3.75;;;;;;;;;;5136472;27;20055;-61
2023/06/11 10:44:56;;;;;;;4.53;3.90;;;;;;;;;;5138659;27;20055;-61
2023/06/11 10:47:22;;;;;;;3.90;3.60;;;;;;;;;;5139719;27;20043;-59
2023/06/11 10:49:49;;;;;;;5.30;3.90;;;;;;;;;;5130027;27;20059;-59
2023/06/11 10:52:16;;;;;;;4.47;4.07;;;;;;;;;;5133232;27;20314;-60
2023/06/11 10:54:45;;;;;;;6.85;3.70;;;;;;;;;;5136184;27;20055;-60
2023/06/11 10:57:12;;;;;;;4.97;3.83;;;;;;;;;;5124413;27;20135;-60
2023/06/11 10:59:39;;;;;;;4.68;4.20;;;;;;;;;;5131200;27;20093;-60
2023/06/11 11:02:11;;;;;;;3.70;3.40;;;;;;;;;;5124824;27;20059;-59
2023/06/11 11:04:49;;;;;;;3.72;3.42;;;;;;;;;;5129630;27;20082;-58
2023/06/11 11:07:17;;;;;;;5.10;3.20;;;;;;;;;;5138456;27;20055;-60
2023/06/11 11:09:44;;;;;;;3.92;3.63;;;;;;;;;;5139032;27;20054;-60
2023/06/11 11:12:11;;;;;;;3.95;3.60;;;;;;;;;;5138703;27;20499;-59
2023/06/11 11:14:38;;;;;;;6.00;3.53;;;;;;;;;;5123235;27;20055;-59
2023/06/11 11:17:04;;;;;;;4.78;3.38;;;;;;;;;;5123232;27;20079;-59
2023/06/11 11:19:32;;;;;;;3.90;3.60;;;;;;;;;;5136273;27;20590;-59
2023/06/11 11:21:59;;;;;;;4.10;3.47;;;;;;;;;;5139905;27;20047;-59
2023/06/11 11:24:25;;;;;;;5.43;3.38;;;;;;;;;;5124549;27;20056;-59
2023/06/11 11:26:51;;;;;;;4.60;3.63;;;;;;;;;;5129566;27;20147;-60
2023/06/11 11:29:18;;;;;;;6.15;3.95;;;;;;;;;;5140601;27;20175;-60
2023/06/11 11:31:45;;;;;;;6.68;4.18;;;;;;;;;;5123602;27;20052;-60
2023/06/11 11:34:12;;;;;;;3.70;3.30;;;;;;;;;;5122169;27;20055;-59
2023/06/11 11:36:39;;;;;;;5.05;3.90;;;;;;;;;;5129392;27;20048;-58
2023/06/11 11:39:11;;;;;;;3.72;3.42;;;;;;;;;;5122994;27;20052;-60
2023/06/11 11:41:45;;;;;;;5.80;3.75;;;;;;;;;;5134994;27;20052;-59
2023/06/11 11:44:11;;;;;;;;;;;;;;;;;;5123906;27;20117;-58
2023/06/11 11:46:38;;;;;;;4.25;3.45;;;;;;;;;;5137386;27;46528;-60
2023/06/11 11:49:05;;;;;;;4.63;3.25;;;;;;;;;;5130636;27;20043;-60
2023/06/11 11:51:31;;;;;;;5.13;3.58;;;;;;;;;;5135762;27;20112;-61
2023/06/11 11:53:57;;;;;;;3.25;2.95;;;;;;;;;;5138006;27;20047;-61
2023/06/11 11:56:32;;;;;;;3.75;3.45;;;;;;;;;;5144056;27;20123;-61
2023/06/11 11:58:59;;;;;;;3.65;3.35;;;;;;;;;;5126538;27;20536;-61
2023/06/11 12:01:32;;;;;;;4.30;3.03;;;;;;;;;;5143331;27;20047;-61
2023/06/11 12:04:01;;;;;;;4.03;2.72;;;;;;;;;;5140169;27;20550;-61
2023/06/11 12:06:30;;;;;;;7.00;2.75;;;;;;;;;;5127831;27;20113;-61
2023/06/11 12:08:57;;;;;;;4.13;3.05;;;;;;;;;;5125559;27;20051;-61
2023/06/11 12:11:24;;;;;;;3.85;2.67;;;;;;;;;;5126074;27;20189;-62
2023/06/11 12:13:50;;;;;;;5.90;2.70;;;;;;;;;;5125731;27;20058;-61
2023/06/11 12:16:17;;;;;;;3.20;2.90;;;;;;;;;;5126667;27;20935;-61
2023/06/11 12:18:43;;;;;;;3.42;3.10;;;;;;;;;;5130350;27;20648;-61
2023/06/11 12:21:09;;;;;;;3.78;2.90;;;;;;;;;;5138789;27;20138;-58
2023/06/11 12:23:36;;;;;;;3.25;2.95;;;;;;;;;;5143878;27;20053;-58
2023/06/11 12:26:02;;;;;;;4.05;3.30;;;;;;;;;;5132731;27;20642;-60
2023/06/11 12:28:29;;;;;;;2.95;2.65;;;;;;;;;;5125881;27;20144;-59
2023/06/11 12:30:55;;;;;;;3.08;2.78;;;;;;;;;;5137196;27;20134;-59
2023/06/11 12:33:21;;;;;;;3.38;3.03;;;;;;;;;;5131563;27;20148;-59
2023/06/11 12:35:48;;;;;;;3.35;2.95;;;;;;;;;;5136296;27;20102;-59
2023/06/11 12:38:15;;;;;;;3.47;3.17;;;;;;;;;;5142884;27;20603;-59
2023/06/11 12:40:41;;;;;;;2.83;2.58;;;;;;;;;;5133045;27;20051;-59
2023/06/11 12:43:08;;;;;;;6.22;2.88;;;;;;;;;;5136644;27;20106;-60
2023/06/11 12:45:37;;;;;;;2.97;2.67;;;;;;;;;;5136423;27;20102;-59
2023/06/11 12:48:04;;;;;;;2.53;2.33;;;;;;;;;;5125057;27;20052;-60
2023/06/11 12:50:31;;;;;;;8.60;3.10;;;;;;;;;;5131288;27;20499;-54
2023/06/11 12:52:57;;;;;;;3.83;2.70;;;;;;;;;;5139626;27;20082;-58
2023/06/11 12:55:26;;;;;;;3.80;2.88;;;;;;;;;;5145674;27;20101;-58
2023/06/11 12:57:53;;;;;;;3.35;2.60;;;;;;;;;;5128968;27;20047;-57
2023/06/11 13:00:19;;;;;;;2.92;2.60;;;;;;;;;;5138986;27;20055;-57
2023/06/11 13:02:46;;;;;;;2.85;2.65;;;;;;;;;;5125593;27;21024;-58
2023/06/11 13:05:12;;;;;;;6.10;3.20;;;;;;;;;;5137062;27;20058;-58
2023/06/11 13:07:39;;;;;;;5.18;3.08;;;;;;;;;;5139224;27;20059;-58
2023/06/11 13:10:05;;;;;;;3.78;3.00;;;;;;;;;;5126916;27;20052;-58
2023/06/11 13:12:32;;;;;;;5.45;2.88;;;;;;;;;;5144030;27;20161;-58
2023/06/11 13:14:58;;;;;;;3.05;2.78;;;;;;;;;;5133655;27;20051;-58
2023/06/11 13:17:25;;;;;;;3.10;2.80;;;;;;;;;;5124698;27;20078;-58
2023/06/11 13:19:54;;;;;;;3.03;2.80;;;;;;;;;;5126620;27;20059;-58
2023/06/11 13:22:21;;;;;;;2.92;2.70;;;;;;;;;;5124818;27;20044;-58
2023/06/11 13:24:47;;;;;;;3.13;2.78;;;;;;;;;;5129706;27;20058;-56
2023/06/11 13:27:13;;;;;;;4.40;3.03;;;;;;;;;;5138227;27;20065;-58
2023/06/11 13:29:40;;;;;;;3.17;2.88;;;;;;;;;;5133230;27;20047;-57
2023/06/11 13:32:07;;;;;;;3.53;3.22;;;;;;;;;;5143029;27;20514;-58
2023/06/11 13:34:33;;;;;;;3.13;2.75;;;;;;;;;;5140597;27;20123;-60
2023/06/11 13:37:02;;;;;;;3.20;2.90;;;;;;;;;;5124603;27;20150;-59
2023/06/11 13:39:29;;;;;;;3.13;2.60;;;;;;;;;;5116389;27;20055;-59
2023/06/11 13:41:55;;;;;;;4.18;2.70;;;;;;;;;;5137004;27;20139;-59
2023/06/11 13:44:23;;;;;;;3.53;3.22;;;;;;;;;;5124407;27;20048;-60
2023/06/11 13:46:50;;;;;;;8.57;2.92;;;;;;;;;;5134605;27;20079;-58
2023/06/11 13:49:16;;;;;;;4.18;3.00;;;;;;;;;;5128116;27;20139;-59
2023/06/11 13:51:43;;;;;;;3.28;2.63;;;;;;;;;;5123789;27;20055;-58
2023/06/11 13:54:09;;;;;;;3.45;3.15;;;;;;;;;;5135612;27;20051;-57
2023/06/11 13:56:36;;;;;;;5.35;2.97;;;;;;;;;;5128195;27;20101;-58
2023/06/11 13:59:03;;;;;;;3.00;2.80;;;;;;;;;;5122317;27;20146;-56
2023/06/11 14:01:29;;;;;;;5.10;2.75;;;;;;;;;;5133530;27;20597;-59
2023/06/11 14:03:56;;;;;;;5.38;3.05;;;;;;;;;;5141401;27;20187;-58
2023/06/11 14:06:23;;;;;;;2.92;2.53;;;;;;;;;;5137663;27;20127;-59
2023/06/11 14:08:49;;;;;;;3.58;3.22;;;;;;;;;;5144211;27;20085;-57
2023/06/11 14:11:16;;;;;;;3.13;2.90;;;;;;;;;;5135631;27;20535;-57
2023/06/11 14:13:44;;;;;;;3.42;3.10;;;;;;;;;;5124198;27;20132;-58
2023/06/11 14:16:10;;;;;;;3.38;3.08;;;;;;;;;;5131282;27;20524;-58
2023/06/11 14:18:37;;;;;;;3.20;2.90;;;;;;;;;;5120754;27;20143;-57
2023/06/11 14:21:03;;;;;;;3.03;2.67;;;;;;;;;;5129761;27;20047;-59
2023/06/11 14:23:29;;;;;;;3.78;3.00;;;;;;;;;;5123699;27;20051;-58
2023/06/11 14:25:56;;;;;;;3.60;3.03;;;;;;;;;;5122920;27;20127;-57
2023/06/11 14:28:22;;;;;;;3.00;2.70;;;;;;;;;;5130662;27;20100;-58
2023/06/11 14:30:50;;;;;;;3.17;2.88;;;;;;;;;;5124365;27;20059;-55
2023/06/11 14:33:16;;;;;;;3.22;2.92;;;;;;;;;;5130909;27;20134;-59
2023/06/11 14:35:42;;;;;;;2.92;2.67;;;;;;;;;;5123015;27;20096;-58
2023/06/11 14:38:09;;;;;;;3.08;2.70;;;;;;;;;;5128576;27;20055;-58
2023/06/11 14:40:35;;;;;;;3.13;2.75;;;;;;;;;;5128487;27;20050;-59
2023/06/11 14:43:02;;;;;;;4.95;3.03;;;;;;;;;;5140610;27;20059;-59